Time;durP1;ratioP1;P1;durP2;ratioP2;P2;SDS_P1;SDS_P2;PMS_P1;PMS_P2;Temp;Humidity;BMP_temperature;BMP_pressure;BME280_temperature;BME280_humidity;BME280_pressure;Samples;Min_cycle;Max_cycle;Signal;HPM_P1;HPM_P2
2024/04/21 00:00:03;;;;;;;;;;;;;;;4.07;nan;102137.06;5470813;26;20411;-81
2024/04/21 00:02:29;;;;;;;;;;;;;;;4.03;nan;102139.22;5465627;26;19944;-81
2024/04/21 00:04:54;;;;;;;;;;;;;;;4.03;nan;102143.72;5473996;26;19928;-80
2024/04/21 00:07:19;;;;;;;;;;;;;;;3.99;nan;102139.75;5475745;26;19928;-81
2024/04/21 00:09:44;;;;;;;;;;;;;;;3.96;nan;102145.41;5472264;26;20360;-80
2024/04/21 00:12:09;;;;;;;;;;;;;;;3.94;nan;102145.53;5474779;26;20035;-81
2024/04/21 00:14:34;;;;;;;;;;;;;;;3.93;nan;102154.50;5476434;26;19936;-81
2024/04/21 00:17:00;;;;;;;;;;;;;;;3.90;nan;102150.38;5481507;26;19935;-81
2024/04/21 00:19:25;;;;;;;;;;;;;;;3.89;nan;102148.72;5483431;26;19928;-80
2024/04/21 00:21:50;;;;;;;;;;;;;;;3.88;nan;102146.22;5487788;26;19935;-80
2024/04/21 00:24:15;;;;;;;;;;;;;;;3.87;nan;102153.38;5473317;26;19928;-80
2024/04/21 00:26:40;;;;;;;;;;;;;;;3.85;nan;102151.88;5479398;25;20595;-80
2024/04/21 00:29:05;;;;;;;;;;;;;;;3.82;nan;102146.91;5474044;26;20490;-80
2024/04/21 00:31:31;;;;;;;;;;;;;;;3.76;nan;102151.06;5479664;26;19928;-79
2024/04/21 00:33:56;;;;;;;;;;;;;;;3.74;nan;102152.22;5474883;26;19935;-80
2024/04/21 00:36:21;;;;;;;;;;;;;;;3.72;nan;102156.88;5475686;26;20330;-80
2024/04/21 00:38:47;;;;;;;;;;;;;;;3.71;nan;102156.03;5483479;26;19928;-80
2024/04/21 00:41:12;;;;;;;;;;;;;;;3.72;nan;102154.22;5473109;26;20334;-80
2024/04/21 00:43:37;;;;;;;;;;;;;;;3.70;nan;102157.03;5474072;26;19964;-80
2024/04/21 00:46:03;;;;;;;;;;;;;;;3.69;nan;102152.75;5476174;26;19929;-80
2024/04/21 00:48:28;;;;;;;;;;;;;;;3.69;nan;102163.34;5476608;26;19927;-80
2024/04/21 00:50:53;;;;;;;;;;;;;;;3.68;nan;102164.34;5478468;26;20042;-80
2024/04/21 00:53:20;;;;;;;;;;;;;;;3.67;nan;102165.34;5473060;26;19940;-80
2024/04/21 00:55:46;;;;;;;;;;;;;;;3.65;nan;102167.31;5482493;26;19935;-80
2024/04/21 00:58:12;;;;;;;;;;;;;;;3.63;nan;102171.97;5471597;26;20321;-81
2024/04/21 01:00:37;;;;;;;;;;;;;;;3.62;nan;102168.50;5475928;26;19927;-80
2024/04/21 01:03:03;;;;;;;;;;;;;;;3.59;nan;102168.84;5474764;26;20272;-81
2024/04/21 01:05:28;;;;;;;;;;;;;;;3.57;nan;102173.44;5471034;26;19928;-80
2024/04/21 01:07:54;;;;;;;;;;;;;;;3.56;nan;102176.25;5475816;26;19928;-80
2024/04/21 01:10:20;;;;;;;;;;;;;;;3.53;nan;102180.09;5476994;26;19932;-80
2024/04/21 01:12:45;;;;;;;;;;;;;;;3.50;nan;102180.41;5478648;26;20556;-80
2024/04/21 01:15:10;;;;;;;;;;;;;;;3.48;nan;102178.94;5477724;26;19943;-80
2024/04/21 01:17:36;;;;;;;;;;;;;;;3.45;nan;102171.31;5479234;26;19939;-80
2024/04/21 01:20:02;;;;;;;;;;;;;;;3.39;nan;102178.09;5476950;26;19995;-80
2024/04/21 01:22:28;;;;;;;;;;;;;;;3.37;nan;102181.91;5473035;26;20651;-80
2024/04/21 01:24:53;;;;;;;;;;;;;;;3.31;nan;102186.88;5474780;26;19971;-80
2024/04/21 01:27:18;;;;;;;;;;;;;;;3.27;nan;102187.38;5476525;26;19978;-80
2024/04/21 01:29:43;;;;;;;;;;;;;;;3.25;nan;102184.06;5475647;26;19935;-80
2024/04/21 01:32:18;;;;;;;;;;;;;;;3.21;nan;102196.78;5477459;26;19928;-80
2024/04/21 01:34:43;;;;;;;;;;;;;;;3.19;nan;102193.47;5473927;26;19936;-80
2024/04/21 01:37:08;;;;;;;;;;;;;;;3.18;nan;102191.84;5473294;26;20416;-80
2024/04/21 01:39:34;;;;;;;;;;;;;;;3.18;nan;102189.19;5474598;26;19934;-80
2024/04/21 01:41:59;;;;;;;;;;;;;;;3.17;nan;102190.19;5472370;26;19971;-80
2024/04/21 01:44:24;;;;;;;;;;;;;;;3.18;nan;102194.47;5476340;26;19978;-80
2024/04/21 01:46:50;;;;;;;;;;;;;;;3.17;nan;102192.00;5486446;26;19927;-80
2024/04/21 01:49:15;;;;;;;;;;;;;;;3.14;nan;102192.34;5473933;26;19945;-80
2024/04/21 01:51:41;;;;;;;;;;;;;;;3.13;nan;102198.63;5475814;26;19928;-80
2024/04/21 01:54:06;;;;;;;;;;;;;;;3.10;nan;102188.34;5481990;26;19939;-80
2024/04/21 01:56:31;;;;;;;;;;;;;;;3.07;nan;102194.00;5475720;26;19934;-80
2024/04/21 01:58:56;;;;;;;;;;;;;;;3.04;nan;102195.94;5482526;26;20657;-80
2024/04/21 02:01:21;;;;;;;;;;;;;;;3.01;nan;102188.34;5475477;26;20356;-80
2024/04/21 02:03:47;;;;;;;;;;;;;;;3.00;nan;102194.63;5472865;26;20329;-80
2024/04/21 02:06:12;;;;;;;;;;;;;;;2.99;nan;102192.13;5472475;25;20839;-80
2024/04/21 02:08:37;;;;;;;;;;;;;;;2.97;nan;102205.53;5474263;26;19931;-80
2024/04/21 02:11:02;;;;;;;;;;;;;;;2.94;nan;102197.94;5474691;26;19935;-80
2024/04/21 02:13:27;;;;;;;;;;;;;;;2.90;nan;102203.72;5477988;26;20072;-80
2024/04/21 02:15:53;;;;;;;;;;;;;;;2.87;nan;102204.00;5472886;26;19932;-80
2024/04/21 02:18:18;;;;;;;;;;;;;;;2.82;nan;102206.31;5471048;26;19927;-81
2024/04/21 02:20:43;;;;;;;;;;;;;;;2.78;nan;102199.69;5476862;26;19943;-80
2024/04/21 02:23:09;;;;;;;;;;;;;;;2.80;nan;102208.31;5481927;26;19935;-80
2024/04/21 02:25:34;;;;;;;;;;;;;;;2.81;nan;102202.03;5476629;26;20376;-80
2024/04/21 02:27:59;;;;;;;;;;;;;;;2.81;nan;102202.84;5471626;26;19992;-80
2024/04/21 02:30:24;;;;;;;;;;;;;;;2.82;nan;102206.31;5465692;26;19935;-80
2024/04/21 02:32:50;;;;;;;;;;;;;;;2.82;nan;102203.69;5476423;26;19936;-80
2024/04/21 02:35:15;;;;;;;;;;;;;;;2.81;nan;102204.66;5476682;25;19936;-81
2024/04/21 02:37:40;;;;;;;;;;;;;;;2.80;nan;102197.72;5470525;26;19928;-80
2024/04/21 02:40:05;;;;;;;;;;;;;;;2.80;nan;102208.31;5473133;26;20004;-80
2024/04/21 02:42:31;;;;;;;;;;;;;;;2.80;nan;102211.78;5475899;26;19956;-80
2024/04/21 02:44:56;;;;;;;;;;;;;;;2.82;nan;102208.97;5474743;26;20380;-80
2024/04/21 02:47:21;;;;;;;;;;;;;;;2.81;nan;102213.44;5484641;26;20284;-80
2024/04/21 02:49:46;;;;;;;;;;;;;;;2.80;nan;102213.59;5473472;26;19931;-80
2024/04/21 02:52:12;;;;;;;;;;;;;;;2.79;nan;102214.59;5474199;26;19928;-80
2024/04/21 02:54:37;;;;;;;;;;;;;;;2.79;nan;102217.25;5473423;26;19928;-80
2024/04/21 02:57:02;;;;;;;;;;;;;;;2.78;nan;102218.22;5472642;26;19979;-81
2024/04/21 02:59:28;;;;;;;;;;;;;;;2.77;nan;102220.06;5475820;26;20302;-80
2024/04/21 03:01:53;;;;;;;;;;;;;;;2.77;nan;102219.22;5474922;26;19944;-80
2024/04/21 03:04:18;;;;;;;;;;;;;;;2.76;nan;102222.88;5471686;26;19935;-80
2024/04/21 03:06:46;;;;;;;;;;;;;;;2.76;nan;102217.56;5473735;26;20161;-80
2024/04/21 03:09:11;;;;;;;;;;;;;;;2.76;nan;102226.34;5469194;26;19936;-81
2024/04/21 03:11:36;;;;;;;;;;;;;;;2.77;nan;102224.53;5444337;26;20280;-80
2024/04/21 03:14:01;;;;;;;;;;;;;;;2.77;nan;102219.22;5472577;26;19932;-81
2024/04/21 03:16:26;;;;;;;;;;;;;;;2.76;nan;102218.41;5474375;26;19942;-81
2024/04/21 03:18:52;;;;;;;;;;;;;;;2.75;nan;102226.50;5468847;26;20008;-80
2024/04/21 03:21:18;;;;;;;;;;;;;;;2.76;nan;102222.88;5465122;26;19928;-80
2024/04/21 03:23:43;;;;;;;;;;;;;;;2.74;nan;102230.97;5472436;26;19936;-80
2024/04/21 03:26:09;;;;;;;;;;;;;;;2.72;nan;102228.47;5471175;26;19940;-81
2024/04/21 03:28:34;;;;;;;;;;;;;;;2.70;nan;102229.63;5476883;26;19936;-81
2024/04/21 03:31:00;;;;;;;;;;;;;;;2.68;nan;102242.16;5474425;26;19928;-80
2024/04/21 03:33:25;;;;;;;;;;;;;;;2.67;nan;102236.03;5474393;26;20552;-80
2024/04/21 03:36:10;;;;;;;;;;;;;;;2.67;nan;102230.75;5474541;26;19943;-80
2024/04/21 03:38:36;;;;;;;;;;;;;;;2.66;nan;102238.84;5474353;26;19939;-81
2024/04/21 03:41:01;;;;;;;;;;;;;;;2.64;nan;102228.44;5472986;26;19935;-80
2024/04/21 03:43:26;;;;;;;;;;;;;;;2.62;nan;102227.78;5442247;26;20464;-80
2024/04/21 03:45:52;;;;;;;;;;;;;;;2.62;nan;102229.59;5478754;26;19928;-80
2024/04/21 03:48:17;;;;;;;;;;;;;;;2.59;nan;102238.69;5484080;26;19943;-80
2024/04/21 03:50:42;;;;;;;;;;;;;;;2.56;nan;102246.94;5478256;26;19932;-80
2024/04/21 03:53:15;;;;;;;;;;;;;;;2.55;nan;102247.94;5478247;26;19942;-80
2024/04/21 03:55:40;;;;;;;;;;;;;;;2.52;nan;102244.78;5475331;26;19928;-80
2024/04/21 03:58:05;;;;;;;;;;;;;;;2.50;nan;102250.19;5446351;26;20293;-80
2024/04/21 04:00:32;;;;;;;;;;;;;;;2.49;nan;102248.53;5476338;26;19956;-80
2024/04/21 04:02:58;;;;;;;;;;;;;;;2.46;nan;102251.50;5473207;26;19934;-80
2024/04/21 04:05:24;;;;;;;;;;;;;;;2.46;nan;102255.97;5478344;26;20332;-80
2024/04/21 04:07:49;;;;;;;;;;;;;;;2.44;nan;102264.06;5478815;26;20004;-80
2024/04/21 04:10:14;;;;;;;;;;;;;;;2.44;nan;102261.41;5481303;26;19936;-80
2024/04/21 04:12:42;;;;;;;;;;;;;;;2.42;nan;102260.75;5477884;26;20416;-80
2024/04/21 04:15:10;;;;;;;;;;;;;;;2.37;nan;102261.22;5478488;26;19935;-80
2024/04/21 04:17:35;;;;;;;;;;;;;;;2.36;nan;102269.31;5454781;26;20408;-81
2024/04/21 04:20:01;;;;;;;;;;;;;;;2.37;nan;102268.34;5478488;26;19932;-80
2024/04/21 04:22:26;;;;;;;;;;;;;;;2.39;nan;102271.66;5478494;26;20496;-80
2024/04/21 04:24:51;;;;;;;;;;;;;;;2.41;nan;102273.16;5477629;26;21467;-80
2024/04/21 04:27:17;;;;;;;;;;;;;;;2.43;nan;102267.69;5477320;26;19985;-80
2024/04/21 04:29:42;;;;;;;;;;;;;;;2.46;nan;102270.03;5479623;26;19939;-80
2024/04/21 04:32:07;;;;;;;;;;;;;;;2.52;nan;102284.47;5477128;26;19980;-80
2024/04/21 04:34:32;;;;;;;;;;;;;;;2.52;nan;102277.34;5478303;26;19964;-80
2024/04/21 04:36:57;;;;;;;;;;;;;;;2.58;nan;102276.72;5478685;26;20490;-80
2024/04/21 04:39:23;;;;;;;;;;;;;;;2.62;nan;102280.69;5478208;26;19935;-80
2024/04/21 04:41:48;;;;;;;;;;;;;;;2.68;nan;102280.03;5479728;26;19940;-81
2024/04/21 04:44:13;;;;;;;;;;;;;;;2.75;nan;102279.44;5476074;26;19955;-80
2024/04/21 04:46:38;;;;;;;;;;;;;;;2.80;nan;102288.53;5479603;26;19939;-80
2024/04/21 04:49:03;;;;;;;;;;;;;;;2.88;nan;102290.41;5478521;26;20372;-81
2024/04/21 04:51:28;;;;;;;;;;;;;;;2.92;nan;102284.63;5479022;26;19936;-81
2024/04/21 04:53:54;;;;;;;;;;;;;;;2.99;nan;102290.94;5477034;26;19928;-81
2024/04/21 04:56:19;;;;;;;;;;;;;;;3.06;nan;102293.78;5477606;26;20369;-81
2024/04/21 04:58:44;;;;;;;;;;;;;;;3.11;nan;102291.47;5475817;26;19927;-81
2024/04/21 05:01:09;;;;;;;;;;;;;;;3.18;nan;102297.78;5475564;26;19928;-82
2024/04/21 05:03:34;;;;;;;;;;;;;;;3.22;nan;102304.41;5474857;26;20387;-82
2024/04/21 05:05:59;;;;;;;;;;;;;;;3.29;nan;102305.44;5479416;26;20349;-82
2024/04/21 05:08:25;;;;;;;;;;;;;;;3.37;nan;102306.44;5478956;26;20387;-82
2024/04/21 05:10:50;;;;;;;;;;;;;;;3.44;nan;102312.75;5476265;26;19929;-82
2024/04/21 05:13:15;;;;;;;;;;;;;;;3.52;nan;102312.75;5476374;26;19935;-83
2024/04/21 05:15:40;;;;;;;;;;;;;;;3.59;nan;102309.31;5477554;26;20408;-82
2024/04/21 05:18:06;;;;;;;;;;;;;;;3.68;nan;102315.44;5471569;26;19943;-83
2024/04/21 05:20:31;;;;;;;;;;;;;;;3.76;nan;102314.59;5472319;26;20172;-83
2024/04/21 05:22:56;;;;;;;;;;;;;;;3.85;nan;102321.56;5467900;26;19936;-83
2024/04/21 05:25:21;;;;;;;;;;;;;;;3.93;nan;102324.22;5475143;26;19928;-84
2024/04/21 05:27:46;;;;;;;;;;;;;;;4.03;nan;102318.75;5477159;26;19928;-83
2024/04/21 05:30:12;;;;;;;;;;;;;;;4.11;nan;102322.22;5473159;26;20001;-83
2024/04/21 05:32:37;;;;;;;;;;;;;;;4.21;nan;102314.09;5475258;26;19928;-83
2024/04/21 05:35:02;;;;;;;;;;;;;;;4.30;nan;102321.03;5473167;26;20001;-84
2024/04/21 05:37:27;;;;;;;;;;;;;;;4.40;nan;102319.03;5471665;26;19935;-83
2024/04/21 05:39:52;;;;;;;;;;;;;;;4.51;nan;102324.00;5471919;26;19942;-83
2024/04/21 05:42:18;;;;;;;;;;;;;;;4.62;nan;102321.97;5476493;26;19948;-84
2024/04/21 05:44:43;;;;;;;;;;;;;;;4.74;nan;102324.09;5476998;26;20642;-84
2024/04/21 05:47:08;;;;;;;;;;;;;;;4.87;nan;102328.88;5473946;26;19932;-83
2024/04/21 05:49:34;;;;;;;;;;;;;;;4.97;nan;102326.00;5478531;26;19940;-84
2024/04/21 05:51:59;;;;;;;;;;;;;;;5.10;nan;102327.09;5470555;26;19928;-82
2024/04/21 05:54:24;;;;;;;;;;;;;;;5.22;nan;102324.91;5475661;26;20421;-84
2024/04/21 05:56:49;;;;;;;;;;;;;;;5.33;nan;102328.97;5475232;26;19935;-84
2024/04/21 05:59:14;;;;;;;;;;;;;;;5.42;nan;102334.09;5474898;26;19928;-84
2024/04/21 06:01:39;;;;;;;;;;;;;;;5.53;nan;102330.19;5476857;26;20685;-84
2024/04/21 06:04:05;;;;;;;;;;;;;;;5.63;nan;102336.09;5469013;26;20268;-85
2024/04/21 06:06:30;;;;;;;;;;;;;;;5.73;nan;102342.00;5475306;26;19996;-85
2024/04/21 06:08:55;;;;;;;;;;;;;;;5.86;nan;102336.09;5473639;26;19971;-85
2024/04/21 06:11:20;;;;;;;;;;;;;;;5.97;nan;102338.38;5468941;26;19936;-85
2024/04/21 06:13:45;;;;;;;;;;;;;;;6.11;nan;102343.94;5476265;26;19939;-85
2024/04/21 06:16:11;;;;;;;;;;;;;;;6.23;nan;102353.13;5474656;26;19956;-85
2024/04/21 06:18:36;;;;;;;;;;;;;;;6.34;nan;102348.19;5475733;26;20597;-85
2024/04/21 06:21:01;;;;;;;;;;;;;;;6.48;nan;102341.25;5474054;26;20387;-85
2024/04/21 06:23:26;;;;;;;;;;;;;;;6.62;nan;102345.75;5473588;26;19993;-84
2024/04/21 06:25:51;;;;;;;;;;;;;;;6.74;nan;102351.44;5475979;26;19928;-85
2024/04/21 06:28:17;;;;;;;;;;;;;;;6.87;nan;102353.47;5469154;26;19992;-86
2024/04/21 06:30:42;;;;;;;;;;;;;;;7.00;nan;102347.47;5473085;26;20000;-85
2024/04/21 06:33:07;;;;;;;;;;;;;;;7.16;nan;102352.59;5472809;26;19932;-86
2024/04/21 06:35:32;;;;;;;;;;;;;;;7.29;nan;102350.13;5476794;26;20431;-86
2024/04/21 06:37:58;;;;;;;;;;;;;;;7.42;nan;102352.94;5477066;26;19944;-86
2024/04/21 06:40:23;;;;;;;;;;;;;;;7.55;nan;102350.44;5477717;26;19928;-87
2024/04/21 06:42:48;;;;;;;;;;;;;;;7.67;nan;102350.75;5472778;26;20420;-87
2024/04/21 06:45:13;;;;;;;;;;;;;;;7.78;nan;102358.25;5484288;26;19960;-87
2024/04/21 06:47:38;;;;;;;;;;;;;;;7.88;nan;102349.91;5481068;26;19928;-87
2024/04/21 06:50:04;;;;;;;;;;;;;;;8.02;nan;102356.22;5484471;26;20376;-89
2024/04/21 06:52:29;;;;;;;;;;;;;;;8.15;nan;102345.66;5481034;26;19935;-89
2024/04/21 06:54:54;;;;;;;;;;;;;;;8.31;nan;102352.56;5479551;26;21375;-89
2024/04/21 06:57:19;;;;;;;;;;;;;;;8.45;nan;102355.16;5485664;26;19935;-89
2024/04/21 06:59:45;;;;;;;;;;;;;;;8.60;nan;102355.03;5485551;26;19931;-90
2024/04/21 07:02:11;;;;;;;;;;;;;;;8.72;nan;102353.47;5480029;26;19929;-89
2024/04/21 07:04:36;;;;;;;;;;;;;;;8.85;nan;102357.25;5472747;26;20266;-90
2024/04/21 07:07:01;;;;;;;;;;;;;;;9.01;nan;102362.28;5481088;26;19952;-90
2024/04/21 07:09:26;;;;;;;;;;;;;;;9.16;nan;102368.31;5473261;26;19943;-89
2024/04/21 07:11:51;;;;;;;;;;;;;;;9.34;nan;102367.78;5477505;26;19932;-90
2024/04/21 07:14:17;;;;;;;;;;;;;;;9.53;nan;102374.22;5485741;26;20613;-90
2024/04/21 07:16:42;;;;;;;;;;;;;;;9.68;nan;102374.84;5486105;26;20349;-90
2024/04/21 07:19:07;;;;;;;;;;;;;;;9.80;nan;102378.59;5478516;26;19928;-92
2024/04/21 07:21:32;;;;;;;;;;;;;;;9.92;nan;102374.31;5486193;26;19938;-90
2024/04/21 07:23:58;;;;;;;;;;;;;;;10.07;nan;102381.34;5489311;26;19928;-91
2024/04/21 07:26:23;;;;;;;;;;;;;;;10.21;nan;102375.78;5495623;26;19928;-91
2024/04/21 07:28:48;;;;;;;;;;;;;;;10.38;nan;102386.09;5486783;26;19935;-91
2024/04/21 07:31:13;;;;;;;;;;;;;;;10.49;nan;102383.63;5482645;26;20065;-92
2024/04/21 07:33:39;;;;;;;;;;;;;;;10.63;nan;102383.63;5483967;26;19928;-93
2024/04/21 07:36:04;;;;;;;;;;;;;;;10.76;nan;102381.72;5484674;26;19940;-94
2024/04/21 07:38:29;;;;;;;;;;;;;;;10.89;nan;102375.50;5484471;26;20060;-92
2024/04/21 07:40:55;;;;;;;;;;;;;;;11.00;nan;102377.56;5487102;26;19928;-95
2024/04/21 07:43:21;;;;;;;;;;;;;;;11.12;nan;102383.06;5486504;26;19993;-94
2024/04/21 07:45:50;;;;;;;;;;;;;;;11.22;nan;102383.44;5487095;26;19928;-90
2024/04/21 07:48:15;;;;;;;;;;;;;;;11.31;nan;102381.34;5449013;26;20553;-92
2024/04/21 07:50:43;;;;;;;;;;;;;;;11.42;nan;102378.00;5485587;26;19935;-92
2024/04/21 07:53:08;;;;;;;;;;;;;;;11.55;nan;102379.78;5488423;26;19959;-91
2024/04/21 07:55:33;;;;;;;;;;;;;;;11.67;nan;102372.69;5485824;26;19937;-90
2024/04/21 07:58:01;;;;;;;;;;;;;;;11.77;nan;102379.25;5484796;26;19928;-92
2024/04/21 08:00:26;;;;;;;;;;;;;;;11.90;nan;102377.56;5486762;26;19932;-92
2024/04/21 08:02:52;;;;;;;;;;;;;;;12.01;nan;102377.66;5489372;26;19928;-95
2024/04/21 08:05:17;;;;;;;;;;;;;;;12.14;nan;102379.44;5485263;26;19940;-94
2024/04/21 08:07:42;;;;;;;;;;;;;;;12.25;nan;102373.38;5482362;26;19932;-93
2024/04/21 08:10:07;;;;;;;;;;;;;;;12.39;nan;102379.47;5482330;26;19935;-95
2024/04/21 08:12:32;;;;;;;;;;;;;;;12.51;nan;102371.47;5484566;26;20816;-93
2024/04/21 08:14:58;;;;;;;;;;;;;;;12.65;nan;102384.56;5489221;26;19996;-94
2024/04/21 08:17:23;;;;;;;;;;;;;;;12.74;nan;102376.19;5445010;26;19928;-94
2024/04/21 08:19:48;;;;;;;;;;;;;;;12.82;nan;102378.63;5491618;26;19934;-94
2024/04/21 08:22:13;;;;;;;;;;;;;;;12.95;nan;102384.69;5481577;26;20060;-94
2024/04/21 08:24:39;;;;;;;;;;;;;;;13.09;nan;102384.50;5481747;26;19928;-92
2024/04/21 08:27:04;;;;;;;;;;;;;;;13.18;nan;102385.91;5483074;26;19997;-92
2024/04/21 08:29:30;;;;;;;;;;;;;;;13.28;nan;102380.78;5486112;26;19935;-93
2024/04/21 08:31:55;;;;;;;;;;;;;;;13.36;nan;102379.69;5479713;26;19928;-95
2024/04/21 08:34:22;;;;;;;;;;;;;;;13.41;nan;102377.94;5487888;26;19932;-93
2024/04/21 08:36:47;;;;;;;;;;;;;;;13.52;nan;102379.88;5454271;26;19928;-95
2024/04/21 08:39:13;;;;;;;;;;;;;;;13.64;nan;102385.28;5486996;26;19939;-94
2024/04/21 08:41:41;;;;;;;;;;;;;;;13.71;nan;102382.50;5480477;26;19939;-95
2024/04/21 08:44:09;;;;;;;;;;;;;;;13.82;nan;102381.72;5487081;26;19934;-94
2024/04/21 08:46:35;;;;;;;;;;;;;;;13.90;nan;102381.41;5483962;26;19928;-94
2024/04/21 08:49:02;;;;;;;;;;;;;;;13.97;nan;102384.81;5481055;26;19935;-94
2024/04/21 08:51:29;;;;;;;;;;;;;;;14.01;nan;102395.97;5484697;26;19929;-93
2024/04/21 08:53:54;;;;;;;;;;;;;;;14.03;nan;102391.16;5488302;26;19935;-95
2024/04/21 08:56:22;;;;;;;;;;;;;;;14.02;nan;102390.34;5481577;26;20004;-94
2024/04/21 08:58:49;;;;;;;;;;;;;;;14.05;nan;102391.75;5484478;26;19928;-94
2024/04/21 09:01:15;;;;;;;;;;;;;;;14.15;nan;102394.69;5487154;26;19928;-93
2024/04/21 09:03:41;;;;;;;;;;;;;;;14.21;nan;102400.00;5479182;26;19961;-94
2024/04/21 09:06:07;;;;;;;;;;;;;;;14.18;nan;102395.06;5490279;26;19928;-94
2024/04/21 09:08:32;;;;;;;;;;;;;;;14.15;nan;102394.69;5489435;26;19946;-94
2024/04/21 09:10:58;;;;;;;;;;;;;;;14.13;nan;102397.63;5487836;26;19976;-86
2024/04/21 09:13:24;;;;;;;;;;;;;;;14.12;nan;102389.75;5484199;26;19998;-90
2024/04/21 09:15:49;;;;;;;;;;;;;;;14.11;nan;102394.34;5477932;25;19929;-91
2024/04/21 09:18:14;;;;;;;;;;;;;;;14.11;nan;102391.63;5485681;26;19928;-93
2024/04/21 09:20:39;;;;;;;;;;;;;;;14.09;nan;102388.34;5484591;26;19964;-89
2024/04/21 09:23:06;;;;;;;;;;;;;;;14.02;nan;102389.53;5488116;26;19960;-93
2024/04/21 09:25:31;;;;;;;;;;;;;;;13.96;nan;102390.44;5487041;26;20321;-91
2024/04/21 09:27:56;;;;;;;;;;;;;;;13.93;nan;102391.72;5486167;26;19940;-91
2024/04/21 09:30:22;;;;;;;;;;;;;;;13.92;nan;102395.47;5485021;26;20398;-90
2024/04/21 09:32:47;;;;;;;;;;;;;;;13.93;nan;102390.91;5479098;26;20368;-92
2024/04/21 09:35:12;;;;;;;;;;;;;;;13.93;nan;102385.50;5447115;26;20384;-91
2024/04/21 09:37:42;;;;;;;;;;;;;;;13.91;nan;102381.16;5483769;26;19931;-92
2024/04/21 09:40:08;;;;;;;;;;;;;;;13.94;nan;102390.66;5485420;26;19928;-92
2024/04/21 09:42:34;;;;;;;;;;;;;;;13.98;nan;102383.75;5476838;26;19968;-92
2024/04/21 09:45:01;;;;;;;;;;;;;;;14.04;nan;102368.56;5483389;26;19973;-92
2024/04/21 09:47:28;;;;;;;;;;;;;;;14.12;nan;102373.59;5450502;26;19928;-92
2024/04/21 09:49:54;;;;;;;;;;;;;;;14.19;nan;102374.31;5487582;26;20462;-91
2024/04/21 09:52:20;;;;;;;;;;;;;;;14.28;nan;102369.41;5494424;26;19935;-91
2024/04/21 09:54:45;;;;;;;;;;;;;;;14.40;nan;102375.63;5489418;26;19935;-93
2024/04/21 09:57:12;;;;;;;;;;;;;;;14.56;nan;102368.75;5483885;26;19928;-91
2024/04/21 09:59:42;;;;;;;;;;;;;;;14.72;nan;102368.84;5487071;26;19934;-93
2024/04/21 10:02:16;;;;;;;;;;;;;;;14.89;nan;102362.72;5478277;26;19928;-92
2024/04/21 10:04:46;;;;;;;;;;;;;;;15.02;nan;102367.84;5481722;26;20388;-94
2024/04/21 10:07:11;;;;;;;;;;;;;;;15.10;nan;102362.91;5486887;26;19928;-94
2024/04/21 10:09:37;;;;;;;;;;;;;;;15.18;nan;102360.88;5487256;26;20595;-94
2024/04/21 10:12:02;;;;;;;;;;;;;;;15.20;nan;102362.28;5488035;26;19928;-91
2024/04/21 10:14:28;;;;;;;;;;;;;;;15.18;nan;102364.41;5483260;26;19932;-92
2024/04/21 10:16:53;;;;;;;;;;;;;;;15.14;nan;102365.13;5488231;26;19940;-90
2024/04/21 10:19:21;;;;;;;;;;;;;;;15.06;nan;102366.31;5487660;26;20268;-92
2024/04/21 10:21:47;;;;;;;;;;;;;;;14.96;nan;102368.81;5487813;26;20582;-90
2024/04/21 10:24:12;;;;;;;;;;;;;;;14.85;nan;102369.63;5483003;26;19996;-94
2024/04/21 10:26:37;;;;;;;;;;;;;;;14.77;nan;102368.13;5483953;26;19938;-91
2024/04/21 10:29:09;;;;;;;;;;;;;;;14.74;nan;102371.31;5482108;26;19928;-93
2024/04/21 10:31:34;;;;;;;;;;;;;;;14.67;nan;102376.81;5446910;26;19936;-94
2024/04/21 10:34:06;;;;;;;;;;;;;;;14.64;nan;102371.91;5483176;26;19935;-92
2024/04/21 10:36:40;;;;;;;;;;;;;;;14.64;nan;102387.25;5484552;26;19935;-93
2024/04/21 10:39:06;;;;;;;;;;;;;;;14.62;nan;102376.72;5478295;26;19928;-92
2024/04/21 10:41:37;;;;;;;;;;;;;;;14.58;nan;102370.16;5486899;26;19938;-93
2024/04/21 10:44:02;;;;;;;;;;;;;;;14.49;nan;102366.97;5478551;26;20372;-91
2024/04/21 10:46:30;;;;;;;;;;;;;;;14.40;nan;102381.03;5486092;26;19974;-91
2024/04/21 10:48:55;;;;;;;;;;;;;;;14.31;nan;102383.22;5477339;26;19944;-92
2024/04/21 10:51:20;;;;;;;;;;;;;;;14.27;nan;102384.75;5485878;26;19996;-90
2024/04/21 10:53:46;;;;;;;;;;;;;;;14.30;nan;102388.84;5478984;26;20299;-91
2024/04/21 10:56:11;;;;;;;;;;;;;;;14.32;nan;102395.66;5481465;26;20238;-90
2024/04/21 10:58:37;;;;;;;;;;;;;;;14.34;nan;102396.22;5484885;26;20004;-90
2024/04/21 11:01:04;;;;;;;;;;;;;;;14.40;nan;102402.59;5486926;26;19936;-90
2024/04/21 11:03:31;;;;;;;;;;;;;;;14.46;nan;102393.59;5484668;26;19960;-90
2024/04/21 11:06:00;;;;;;;;;;;;;;;14.48;nan;102389.59;5453112;26;19939;-90
2024/04/21 11:08:25;;;;;;;;;;;;;;;14.49;nan;102387.72;5476975;26;19928;-92
2024/04/21 11:10:50;;;;;;;;;;;;;;;14.52;nan;102382.69;5491245;26;19928;-90
2024/04/21 11:13:16;;;;;;;;;;;;;;;14.58;nan;102383.63;5475466;26;19936;-89
2024/04/21 11:15:41;;;;;;;;;;;;;;;14.64;nan;102384.56;5480155;26;19949;-92
2024/04/21 11:18:06;;;;;;;;;;;;;;;14.71;nan;102382.56;5486191;26;20369;-89
2024/04/21 11:20:32;;;;;;;;;;;;;;;14.72;nan;102379.66;5487126;26;19928;-92
2024/04/21 11:22:57;;;;;;;;;;;;;;;14.69;nan;102384.66;5481109;26;19935;-92
2024/04/21 11:25:22;;;;;;;;;;;;;;;14.68;nan;102383.03;5476231;26;20376;-91
2024/04/21 11:27:49;;;;;;;;;;;;;;;14.79;nan;102380.34;5486417;26;20373;-91
2024/04/21 11:30:17;;;;;;;;;;;;;;;14.94;nan;102379.84;5486122;26;19986;-92
2024/04/21 11:32:43;;;;;;;;;;;;;;;15.02;nan;102370.56;5480812;26;19969;-92
2024/04/21 11:35:08;;;;;;;;;;;;;;;15.00;nan;102378.06;5483511;26;20172;-91
2024/04/21 11:37:33;;;;;;;;;;;;;;;14.99;nan;102373.72;5486008;26;20009;-92
2024/04/21 11:39:58;;;;;;;;;;;;;;;15.06;nan;102380.63;5472955;26;19936;-92
2024/04/21 11:42:23;;;;;;;;;;;;;;;15.08;nan;102366.88;5483158;26;19943;-90
2024/04/21 11:44:49;;;;;;;;;;;;;;;15.09;nan;102365.84;5483587;26;19928;-93
2024/04/21 11:47:19;;;;;;;;;;;;;;;15.19;nan;102367.94;5483393;26;20000;-91
2024/04/21 11:49:44;;;;;;;;;;;;;;;15.34;nan;102369.06;5484638;26;20253;-91
2024/04/21 11:52:10;;;;;;;;;;;;;;;15.40;nan;102375.38;5485362;26;19928;-90
2024/04/21 11:54:35;;;;;;;;;;;;;;;15.39;nan;102369.16;5454950;26;20009;-93
2024/04/21 11:57:00;;;;;;;;;;;;;;;15.36;nan;102369.63;5451593;26;19960;-94
2024/04/21 11:59:25;;;;;;;;;;;;;;;15.40;nan;102367.25;5458628;26;19927;-92
2024/04/21 12:01:51;;;;;;;;;;;;;;;15.41;nan;102372.41;5479210;26;19974;-93
2024/04/21 12:04:16;;;;;;;;;;;;;;;15.46;nan;102366.31;5482975;26;20206;-92
2024/04/21 12:06:41;;;;;;;;;;;;;;;15.59;nan;102363.34;5451484;26;20437;-92
2024/04/21 12:09:08;;;;;;;;;;;;;;;15.73;nan;102361.16;5482771;26;19927;-94
2024/04/21 12:11:33;;;;;;;;;;;;;;;15.90;nan;102363.88;5485645;26;19932;-92
2024/04/21 12:14:20;;;;;;;;;;;;;;;16.14;nan;102362.66;5480728;26;19936;-93
2024/04/21 12:16:46;;;;;;;;;;;;;;;16.32;nan;102356.19;5449924;26;20268;-93
2024/04/21 12:19:11;;;;;;;;;;;;;;;16.37;nan;102353.56;5487228;26;19961;-92
2024/04/21 12:21:36;;;;;;;;;;;;;;;16.50;nan;102339.66;5480999;26;20364;-92
2024/04/21 12:24:01;;;;;;;;;;;;;;;16.60;nan;102339.00;5479436;26;19935;-93
2024/04/21 12:26:26;;;;;;;;;;;;;;;16.75;nan;102333.03;5483259;26;19936;-92
2024/04/21 12:28:52;;;;;;;;;;;;;;;16.94;nan;102330.81;5484597;26;19940;-92
2024/04/21 12:31:17;;;;;;;;;;;;;;;17.15;nan;102322.69;5477338;26;19939;-92
2024/04/21 12:33:42;;;;;;;;;;;;;;;17.26;nan;102320.09;5481876;26;19943;-91
2024/04/21 12:36:07;;;;;;;;;;;;;;;17.21;nan;102324.38;5484866;26;20000;-93
2024/04/21 12:38:32;;;;;;;;;;;;;;;17.13;nan;102324.00;5487420;26;20609;-92
2024/04/21 12:40:58;;;;;;;;;;;;;;;17.13;nan;102316.69;5483137;26;19939;-92
2024/04/21 12:43:24;;;;;;;;;;;;;;;17.21;nan;102304.59;5482860;26;20349;-93
2024/04/21 12:45:49;;;;;;;;;;;;;;;17.20;nan;102319.19;5483735;26;19948;-91
2024/04/21 12:48:14;;;;;;;;;;;;;;;17.14;nan;102312.09;5487035;26;19942;-90
2024/04/21 12:50:39;;;;;;;;;;;;;;;17.10;nan;102302.84;5482230;26;19935;-90
2024/04/21 12:53:04;;;;;;;;;;;;;;;16.99;nan;102303.81;5474631;26;19939;-91